createdAt,value
2019-04-04T00:00:59.994Z,29.6452
2019-04-04T00:02:02.280Z,29.7002
2019-04-04T00:03:04.578Z,29.6727
2019-04-04T00:04:06.880Z,29.7139
2019-04-04T00:05:09.182Z,29.7459
2019-04-04T00:06:11.481Z,29.5460
2019-04-04T00:07:13.770Z,29.8024
2019-04-04T00:08:16.057Z,29.8604
2019-04-04T00:09:18.354Z,29.7749
2019-04-04T00:10:20.640Z,29.8024
2019-04-04T00:11:22.927Z,29.8024
2019-04-04T00:12:25.225Z,29.8116
2019-04-04T00:13:27.512Z,29.7978
2019-04-04T00:14:29.807Z,29.9306
2019-04-04T00:15:32.107Z,29.7414
2019-04-04T00:16:34.397Z,29.8436
2019-04-04T00:17:36.685Z,29.7734
2019-04-04T00:18:38.994Z,29.8024
2019-04-04T00:19:41.294Z,29.7322
2019-04-04T00:20:43.599Z,29.8436
2019-04-04T00:21:45.905Z,29.8146
2019-04-04T00:22:48.206Z,29.7978
2019-04-04T00:23:50.490Z,29.8421
2019-04-04T00:24:52.777Z,29.9031
2019-04-04T00:25:54.239Z,29.9153
2019-04-04T00:26:56.534Z,29.8283
2019-04-04T00:27:58.827Z,29.8024
2019-04-04T00:29:01.463Z,29.8436
2019-04-04T00:30:03.917Z,29.8299
2019-04-04T00:31:06.217Z,29.8436
2019-04-04T00:32:08.580Z,29.8009
2019-04-04T00:33:10.864Z,29.9168
2019-04-04T00:34:13.805Z,29.8985
2019-04-04T00:35:16.198Z,29.8985
2019-04-04T00:36:18.526Z,29.8146
2019-04-04T00:37:20.817Z,29.9168
2019-04-04T00:38:23.113Z,29.8329
2019-04-04T00:39:25.461Z,29.9519
2019-04-04T00:40:27.751Z,29.9123
2019-04-04T00:41:30.046Z,29.9397
2019-04-04T00:42:32.341Z,29.9992
2019-04-04T00:43:34.640Z,29.9702
2019-04-04T00:44:36.940Z,29.9397
2019-04-04T00:45:39.230Z,30.0801
2019-04-04T00:46:41.525Z,30.0359
2019-04-04T00:47:43.815Z,30.0267
2019-04-04T00:48:46.124Z,29.9840
2019-04-04T00:49:48.418Z,30.0114
2019-04-04T00:50:50.719Z,29.9855
2019-04-04T00:51:53.027Z,30.0130
2019-04-04T00:52:55.317Z,30.1686
2019-04-04T00:53:57.612Z,30.1091
2019-04-04T00:54:59.910Z,30.1686
2019-04-04T00:56:02.205Z,30.0847
2019-04-04T00:57:04.508Z,30.1854
2019-04-04T00:58:06.819Z,30.1122
2019-04-04T00:59:09.114Z,30.1137
2019-04-04T01:00:11.401Z,30.1869
2019-04-04T01:01:13.699Z,30.2449
2019-04-04T01:02:15.998Z,30.1579
2019-04-04T01:03:18.289Z,30.1122
2019-04-04T01:04:20.586Z,30.5241
2019-04-04T01:05:22.879Z,30.2007
2019-04-04T01:06:25.178Z,30.2724
2019-04-04T01:07:27.511Z,30.3044
2019-04-04T01:08:29.806Z,30.3548
2019-04-04T01:09:32.091Z,30.2510
2019-04-04T01:10:34.375Z,30.3822
2019-04-04T01:11:36.669Z,30.2861
2019-04-04T01:12:38.969Z,30.2495
2019-04-04T01:13:41.298Z,30.2541
2019-04-04T01:14:43.591Z,30.2831
2019-04-04T01:15:45.879Z,30.3105
2019-04-04T01:16:48.172Z,30.3639
2019-04-04T01:17:50.475Z,30.3822
2019-04-04T01:18:52.758Z,30.2876
2019-04-04T01:19:55.050Z,30.3105
2019-04-04T01:20:57.347Z,30.3288
2019-04-04T01:21:59.636Z,30.3273
2019-04-04T01:23:01.941Z,30.2266
2019-04-04T01:24:04.243Z,30.2510
2019-04-04T01:25:06.547Z,30.3838
2019-04-04T01:26:08.841Z,30.2541
2019-04-04T01:27:11.129Z,30.3059
2019-04-04T01:28:13.460Z,30.4234
2019-04-04T01:29:15.747Z,30.3822
2019-04-04T01:30:18.041Z,30.3410
2019-04-04T01:31:20.337Z,30.3609
2019-04-04T01:32:22.628Z,30.3838
2019-04-04T01:33:24.934Z,30.3090
2019-04-04T01:34:27.227Z,30.3273
2019-04-04T01:35:29.527Z,30.3517
2019-04-04T01:36:31.844Z,30.3975
2019-04-04T01:37:34.151Z,30.3243
2019-04-04T01:38:36.443Z,30.3838
2019-04-04T01:39:38.740Z,30.2831
2019-04-04T01:40:41.140Z,30.3960
2019-04-04T01:41:43.431Z,30.3517
2019-04-04T01:42:45.821Z,30.3685
2019-04-04T01:43:48.117Z,30.3822
2019-04-04T01:44:50.405Z,30.5104
2019-04-04T01:45:52.694Z,30.4097
2019-04-04T01:46:54.991Z,30.5837
2019-04-04T01:47:57.285Z,30.3700
2019-04-04T01:48:59.578Z,30.6294
2019-04-04T01:50:01.865Z,30.5119
2019-04-04T01:51:04.166Z,30.4097
2019-04-04T01:52:06.457Z,30.5241
2019-04-04T01:53:08.766Z,30.4387
2019-04-04T01:54:11.077Z,30.4234
2019-04-04T01:55:13.364Z,30.4250
2019-04-04T01:56:15.670Z,30.4967
2019-04-04T01:57:17.967Z,30.4387
2019-04-04T01:58:20.256Z,30.5928
2019-04-04T01:59:22.547Z,30.6401
2019-04-04T02:00:25.108Z,30.4250
2019-04-04T02:01:27.395Z,30.5074
2019-04-04T02:02:29.680Z,30.4982
2019-04-04T02:03:31.972Z,30.4646
2019-04-04T02:04:34.263Z,30.7866
2019-04-04T02:05:43.712Z,30.4784
2019-04-04T02:06:46.012Z,30.5928
2019-04-04T02:07:48.310Z,30.4616
2019-04-04T02:08:50.595Z,30.4921
2019-04-04T02:09:52.894Z,30.5699
2019-04-04T02:10:55.184Z,30.5196
2019-04-04T02:11:57.475Z,30.4646
2019-04-04T02:12:59.769Z,30.5898
2019-04-04T02:14:02.065Z,30.5486
2019-04-04T02:15:04.369Z,30.5303
2019-04-04T02:16:16.923Z,30.6035
2019-04-04T02:17:20.071Z,30.4891
2019-04-04T02:18:24.528Z,30.4738
2019-04-04T02:19:26.819Z,30.5074
2019-04-04T02:20:29.105Z,30.5653
2019-04-04T02:21:31.382Z,30.6218
2019-04-04T02:22:33.675Z,30.5928
2019-04-04T02:23:35.969Z,30.6630
2019-04-04T02:24:38.262Z,30.5745
2019-04-04T02:25:40.587Z,30.5852
2019-04-04T02:26:42.880Z,30.6065
2019-04-04T02:27:45.172Z,30.6035
2019-04-04T02:28:47.463Z,30.5150
2019-04-04T02:29:49.764Z,30.5882
2019-04-04T02:30:52.087Z,30.5882
2019-04-04T02:31:54.598Z,30.5486
2019-04-04T02:33:00.524Z,30.5486
2019-04-04T02:34:05.639Z,30.6020
2019-04-04T02:35:10.678Z,30.5165
2019-04-04T02:36:16.745Z,30.5440
2019-04-04T02:37:21.383Z,30.6065
2019-04-04T02:38:27.111Z,30.5715
2019-04-04T02:39:30.222Z,30.5165
2019-04-04T02:40:32.526Z,30.6203
2019-04-04T02:41:34.826Z,30.5715
2019-04-04T02:42:37.125Z,30.5287
2019-04-04T02:43:39.420Z,30.6310
2019-04-04T02:44:41.709Z,30.4570
2019-04-04T02:45:44.002Z,30.5974
2019-04-04T02:46:46.299Z,30.6126
2019-04-04T02:47:51.258Z,30.5943
2019-04-04T02:48:56.262Z,30.6126
2019-04-04T02:50:01.186Z,30.6432
2019-04-04T02:51:06.951Z,30.5150
2019-04-04T02:52:12.830Z,30.5715
2019-04-04T02:53:19.187Z,30.5425
2019-04-04T02:54:24.601Z,30.6889
2019-04-04T02:55:30.890Z,30.6020
2019-04-04T02:56:36.004Z,30.6432
2019-04-04T02:57:41.181Z,30.6020
2019-04-04T02:58:46.448Z,30.5989
2019-04-04T02:59:52.821Z,30.6844
2019-04-04T03:00:59.371Z,30.5669
2019-04-04T03:02:05.157Z,30.5715
2019-04-04T03:03:09.401Z,30.6722
2019-04-04T03:04:13.908Z,30.7256
2019-04-04T03:05:19.289Z,30.6249
2019-04-04T03:06:24.299Z,30.6538
2019-04-04T03:07:29.761Z,30.6218
2019-04-04T03:08:36.642Z,30.6813
2019-04-04T03:09:43.346Z,30.6844
2019-04-04T03:10:48.968Z,30.6249
2019-04-04T03:11:53.554Z,30.6706
2019-04-04T03:12:58.676Z,30.6706
2019-04-04T03:14:03.859Z,30.6081
2019-04-04T03:15:09.191Z,30.6111
2019-04-04T03:16:12.456Z,30.6386
2019-04-04T03:17:14.767Z,30.6538
2019-04-04T03:18:17.065Z,30.6401
2019-04-04T03:19:19.368Z,30.6523
2019-04-04T03:20:21.667Z,30.6386
2019-04-04T03:21:23.956Z,30.7820
2019-04-04T03:22:27.545Z,30.6676
2019-04-04T03:23:33.805Z,30.6813
2019-04-04T03:24:38.862Z,30.6676
2019-04-04T03:25:42.221Z,30.6386
2019-04-04T03:26:44.538Z,30.9010
2019-04-04T03:27:46.830Z,30.5943
2019-04-04T03:28:49.123Z,30.5196
2019-04-04T03:29:51.416Z,30.7256
2019-04-04T03:31:01.899Z,30.7912
2019-04-04T03:32:01.961Z,30.6081
2019-04-04T03:33:04.260Z,30.7362
2019-04-04T03:34:11.268Z,30.6798
2019-04-04T03:35:14.826Z,31.0140
2019-04-04T03:36:17.131Z,30.6767
2019-04-04T03:37:19.458Z,30.6493
2019-04-04T03:38:21.769Z,30.8690
2019-04-04T03:39:24.057Z,30.7393
2019-04-04T03:40:26.376Z,30.6340
2019-04-04T03:41:30.705Z,30.6935
2019-04-04T03:42:36.928Z,30.7042
2019-04-04T03:43:39.222Z,30.7073
2019-04-04T03:44:41.523Z,30.6477
2019-04-04T03:45:43.831Z,30.7683
2019-04-04T03:46:46.132Z,30.8354
2019-04-04T03:47:48.420Z,30.7668
2019-04-04T03:48:51.150Z,30.7622
2019-04-04T03:49:56.333Z,30.9224
2019-04-04T03:51:03.516Z,30.6767
2019-04-04T03:52:10.233Z,30.8782
2019-04-04T03:53:16.220Z,30.8507
2019-04-04T03:54:22.257Z,31.0246
2019-04-04T03:55:27.341Z,30.7668
2019-04-04T03:56:36.170Z,30.8644
2019-04-04T03:57:38.997Z,30.8492
2019-04-04T03:58:41.308Z,30.7912
2019-04-04T03:59:43.605Z,30.8324
2019-04-04T04:00:45.945Z,31.0201
2019-04-04T04:01:48.229Z,30.9636
2019-04-04T04:02:50.961Z,30.9087
2019-04-04T04:03:55.395Z,30.9789
2019-04-04T04:05:00.333Z,30.8904
2019-04-04T04:06:08.469Z,30.9331
2019-04-04T04:07:13.809Z,30.9636
2019-04-04T04:08:20.904Z,31.0048
2019-04-04T04:09:26.374Z,30.9773
2019-04-04T04:10:32.188Z,30.8492
2019-04-04T04:11:37.430Z,31.0796
2019-04-04T04:12:43.069Z,30.9636
2019-04-04T04:13:49.024Z,31.0384
2019-04-04T04:14:54.785Z,30.9926
2019-04-04T04:16:01.720Z,30.9957
2019-04-04T04:17:05.685Z,31.0658
2019-04-04T04:18:07.988Z,31.0094
2019-04-04T04:19:10.329Z,30.9499
2019-04-04T04:20:12.625Z,31.1620
2019-04-04T04:21:14.956Z,30.8995
2019-04-04T04:22:19.289Z,31.0460
2019-04-04T04:23:23.874Z,31.1513
2019-04-04T04:24:29.221Z,31.0460
2019-04-04T04:25:35.269Z,31.1070
2019-04-04T04:26:41.883Z,31.1971
2019-04-04T04:27:47.385Z,31.0368
2019-04-04T04:28:53.096Z,30.9926
2019-04-04T04:29:55.820Z,31.0613
2019-04-04T04:30:58.116Z,31.0094
2019-04-04T04:32:00.419Z,31.0414
2019-04-04T04:33:02.726Z,31.0201
2019-04-04T04:34:05.022Z,31.0475
2019-04-04T04:35:08.607Z,30.9606
2019-04-04T04:36:15.239Z,31.0094
2019-04-04T04:37:20.393Z,31.0094
2019-04-04T04:38:26.866Z,31.1238
2019-04-04T04:39:29.386Z,30.9911
2019-04-04T04:40:31.693Z,31.1116
2019-04-04T04:41:33.994Z,31.0826
2019-04-04T04:42:36.414Z,31.0048
2019-04-04T04:43:38.734Z,31.1116
2019-04-04T04:44:41.060Z,31.2749
2019-04-04T04:45:44.254Z,31.1254
2019-04-04T04:46:49.773Z,31.2078
2019-04-04T04:47:55.909Z,31.1940
2019-04-04T04:49:00.606Z,31.0475
2019-04-04T04:50:08.667Z,31.1788
2019-04-04T04:51:12.640Z,31.0597
2019-04-04T04:52:15.359Z,30.8873
2019-04-04T04:53:18.914Z,31.0475
2019-04-04T04:54:22.826Z,31.0872
2019-04-04T04:55:27.216Z,30.9041
2019-04-04T04:56:31.395Z,31.0704
2019-04-04T04:57:36.639Z,30.9041
2019-04-04T04:58:41.751Z,30.9834
2019-04-04T04:59:44.643Z,30.9270
2019-04-04T05:00:47.938Z,31.0048
2019-04-04T05:01:51.190Z,31.0201
2019-04-04T05:02:53.821Z,30.9468
2019-04-04T05:03:56.663Z,30.9041
2019-04-04T05:05:00.022Z,30.9728
2019-04-04T05:06:02.668Z,31.0185
2019-04-04T05:07:07.410Z,30.9911
2019-04-04T05:08:10.698Z,31.0964
2019-04-04T05:09:14.115Z,30.8904
2019-04-04T05:10:16.932Z,30.9773
2019-04-04T05:11:19.773Z,30.9056
2019-04-04T05:12:22.269Z,30.8324
2019-04-04T05:13:26.120Z,30.7179
2019-04-04T05:14:30.448Z,30.6752
2019-04-04T05:15:33.211Z,30.6905
2019-04-04T05:16:37.625Z,30.7179
2019-04-04T05:17:42.063Z,30.6035
2019-04-04T05:18:47.525Z,30.6722
2019-04-04T05:19:50.774Z,30.5898
2019-04-04T05:20:53.116Z,30.6661
2019-04-04T05:21:55.417Z,30.6905
2019-04-04T05:22:57.707Z,30.7637
2019-04-04T05:23:59.992Z,30.5715
2019-04-04T05:25:08.468Z,30.7454
2019-04-04T05:26:10.538Z,30.6157
2019-04-04T05:27:12.884Z,30.6203
2019-04-04T05:28:15.210Z,30.6126
2019-04-04T05:29:17.501Z,30.6203
2019-04-04T05:30:20.445Z,30.6203
2019-04-04T05:31:22.956Z,30.6065
2019-04-04T05:32:25.247Z,30.5745
2019-04-04T05:33:28.464Z,30.6615
2019-04-04T05:34:33.714Z,30.6615
2019-04-04T05:35:37.654Z,30.5486
2019-04-04T05:36:40.180Z,30.5577
2019-04-04T05:37:42.505Z,30.4753
2019-04-04T05:38:47.165Z,30.6523
2019-04-04T05:39:51.341Z,30.5150
2019-04-04T05:40:55.498Z,30.4295
2019-04-04T05:42:00.406Z,30.5058
2019-04-04T05:43:04.176Z,30.4753
2019-04-04T05:44:09.329Z,30.4143
2019-04-04T05:45:14.310Z,30.6065
2019-04-04T05:46:19.030Z,30.6950
2019-04-04T05:47:23.176Z,30.4891
2019-04-04T05:48:27.106Z,30.4921
2019-04-04T05:49:31.332Z,30.4616
2019-04-04T05:50:33.617Z,30.4326
2019-04-04T05:51:36.320Z,30.3319
2019-04-04T05:52:38.713Z,30.2464
2019-04-04T05:53:41.032Z,30.2831
2019-04-04T05:54:43.345Z,30.3593
2019-04-04T05:55:45.622Z,30.1579
2019-04-04T05:56:49.047Z,30.1274
2019-04-04T05:57:51.950Z,30.1961
2019-04-04T05:58:54.246Z,30.0954
2019-04-04T05:59:56.602Z,30.2129
2019-04-04T06:01:01.535Z,30.0816
2019-04-04T06:02:04.145Z,30.0664
2019-04-04T06:03:06.437Z,30.1259
2019-04-04T06:04:08.749Z,30.0496
2019-04-04T06:05:11.041Z,30.0542
2019-04-04T06:06:13.362Z,30.2556
2019-04-04T06:07:16.445Z,30.0801
2019-04-04T06:08:18.912Z,30.0526
2019-04-04T06:09:21.233Z,30.0526
2019-04-04T06:10:23.563Z,30.0084
2019-04-04T06:11:25.860Z,30.0404
2019-04-04T06:12:28.147Z,30.1366
2019-04-04T06:13:30.479Z,30.0526
2019-04-04T06:14:32.772Z,30.0114
2019-04-04T06:15:35.068Z,30.0816
2019-04-04T06:16:37.360Z,30.1717
2019-04-04T06:17:39.930Z,29.9443
2019-04-04T06:18:43.017Z,29.9260
2019-04-04T06:19:45.874Z,29.8833
2019-04-04T06:20:48.585Z,29.8253
2019-04-04T06:21:51.325Z,29.9855
2019-04-04T06:22:53.620Z,29.9535
2019-04-04T06:23:56.663Z,29.8390
2019-04-04T06:24:59.318Z,29.8390
2019-04-04T06:26:02.239Z,30.3563
2019-04-04T06:27:07.075Z,30.8446
2019-04-04T06:28:12.102Z,30.6706
2019-04-04T06:29:15.233Z,30.6081
2019-04-04T06:30:20.245Z,30.2998
2019-04-04T06:31:26.220Z,29.5628
2019-04-04T06:32:31.048Z,29.5323
2019-04-04T06:33:35.233Z,29.4759
2019-04-04T06:34:38.295Z,29.5644
2019-04-04T06:35:40.581Z,29.5552
2019-04-04T06:36:42.884Z,29.6498
2019-04-04T06:37:46.253Z,29.5735
2019-04-04T06:38:49.929Z,29.8192
2019-04-04T06:39:54.321Z,29.6193
2019-04-04T06:40:56.822Z,29.7505
2019-04-04T06:41:59.143Z,29.8512
2019-04-04T06:43:03.793Z,29.6925
2019-04-04T06:44:06.434Z,29.5918
2019-04-04T06:45:08.743Z,29.5872
2019-04-04T06:46:11.033Z,29.6147
2019-04-04T06:47:16.279Z,29.7017
2019-04-04T06:48:18.807Z,29.5460
2019-04-04T06:49:21.096Z,29.6178
2019-04-04T06:50:23.441Z,29.5369
2019-04-04T06:51:25.729Z,29.5628
2019-04-04T06:52:28.022Z,29.6361
2019-04-04T06:53:30.316Z,29.4942
2019-04-04T06:54:32.597Z,29.4438
2019-04-04T06:55:39.803Z,29.7093
2019-04-04T06:56:43.144Z,29.5308
2019-04-04T06:57:47.601Z,29.4728
2019-04-04T06:58:52.110Z,29.4850
2019-04-04T06:59:54.406Z,29.5415
2019-04-04T07:00:56.717Z,29.5811
2019-04-04T07:01:59.035Z,29.5125
2019-04-04T07:03:01.329Z,29.5552
2019-04-04T07:04:03.631Z,29.6147
2019-04-04T07:05:06.250Z,29.5995
2019-04-04T07:06:10.232Z,29.6147
2019-04-04T07:07:13.191Z,29.6193
2019-04-04T07:08:15.892Z,29.7154
2019-04-04T07:09:19.179Z,29.4865
2019-04-04T07:10:22.106Z,29.5003
2019-04-04T07:11:24.481Z,29.6925
2019-04-04T07:12:28.441Z,29.7932
2019-04-04T07:13:41.827Z,29.5598
2019-04-04T07:14:45.452Z,29.5735
2019-04-04T07:16:03.514Z,29.5583
2019-04-04T07:16:55.813Z,29.5720
2019-04-04T07:17:58.191Z,29.5857
2019-04-04T07:19:00.481Z,29.5506
2019-04-04T07:20:02.770Z,29.6498
2019-04-04T07:21:05.057Z,29.6788
2019-04-04T07:22:07.360Z,29.5827
2019-04-04T07:23:09.654Z,29.5735
2019-04-04T07:24:11.951Z,29.5506
2019-04-04T07:25:14.235Z,29.4957
2019-04-04T07:26:16.527Z,29.4347
2019-04-04T07:27:18.821Z,29.6315
2019-04-04T07:28:21.112Z,29.5872
2019-04-04T07:29:25.301Z,29.5918
2019-04-04T07:30:29.156Z,29.6468
2019-04-04T07:31:33.526Z,29.7475
2019-04-04T07:32:40.841Z,29.6773
2019-04-04T07:33:43.822Z,29.7063
2019-04-04T07:34:46.128Z,29.6635
2019-04-04T07:35:48.897Z,29.7780
2019-04-04T07:36:51.879Z,29.7292
2019-04-04T07:37:57.288Z,29.5674
2019-04-04T07:39:00.325Z,29.6468
2019-04-04T07:40:04.397Z,29.6361
2019-04-04T07:41:08.287Z,29.7749
2019-04-04T07:42:11.315Z,29.7932
2019-04-04T07:43:13.628Z,29.8344
2019-04-04T07:44:15.924Z,29.8970
2019-04-04T07:45:18.228Z,29.9657
2019-04-04T07:46:20.520Z,30.0359
2019-04-04T07:47:22.822Z,29.9672
2019-04-04T07:48:25.118Z,29.8253
2019-04-04T07:49:27.405Z,29.8375
2019-04-04T07:50:29.700Z,29.9077
2019-04-04T07:51:31.993Z,29.8833
2019-04-04T07:52:34.286Z,30.0664
2019-04-04T07:53:37.155Z,30.0954
2019-04-04T07:54:39.466Z,30.0542
2019-04-04T07:55:42.184Z,29.9031
2019-04-04T07:56:48.555Z,30.0298
2019-04-04T07:57:51.664Z,30.1305
2019-04-04T07:58:54.001Z,30.0069
2019-04-04T07:59:56.300Z,30.1625
2019-04-04T08:00:58.592Z,30.1762
2019-04-04T08:02:00.892Z,30.2037
2019-04-04T08:03:03.186Z,30.3639
2019-04-04T08:04:06.781Z,30.3059
2019-04-04T08:05:09.184Z,30.2052
2019-04-04T08:06:11.485Z,30.1213
2019-04-04T08:07:13.780Z,30.1946
2019-04-04T08:08:15.231Z,30.2174
2019-04-04T08:09:17.529Z,30.0862
2019-04-04T08:10:21.069Z,29.9336
2019-04-04T08:11:23.499Z,30.0130
2019-04-04T08:12:25.793Z,29.9763
2019-04-04T08:13:28.089Z,30.0999
2019-04-04T08:14:30.382Z,30.0618
2019-04-04T08:15:32.674Z,30.0587
2019-04-04T08:16:34.971Z,29.9519
2019-04-04T08:17:37.275Z,30.0633
2019-04-04T08:18:39.561Z,30.2037
2019-04-04T08:19:41.862Z,30.1320
2019-04-04T08:20:44.178Z,30.2174
2019-04-04T08:21:46.515Z,30.0999
2019-04-04T08:22:48.819Z,30.0587
2019-04-04T08:23:51.168Z,30.0908
2019-04-04T08:24:54.240Z,30.2129
2019-04-04T08:26:04.336Z,30.1259
2019-04-04T08:27:06.731Z,30.1305
2019-04-04T08:28:09.079Z,30.0542
2019-04-04T08:29:11.383Z,30.2144
2019-04-04T08:30:13.682Z,30.4555
2019-04-04T08:31:15.971Z,30.4280
2019-04-04T08:32:18.262Z,30.4250
2019-04-04T08:33:20.573Z,30.4006
2019-04-04T08:34:22.857Z,30.3105
2019-04-04T08:35:25.181Z,30.2739
2019-04-04T08:36:27.476Z,30.3426
2019-04-04T08:37:29.771Z,30.2831
2019-04-04T08:38:32.057Z,30.2190
2019-04-04T08:39:34.386Z,30.2586
2019-04-04T08:40:36.690Z,30.3914
2019-04-04T08:41:38.971Z,30.3365
2019-04-04T08:42:41.282Z,30.2724
2019-04-04T08:43:43.584Z,30.2998
2019-04-04T08:44:45.915Z,30.1915
2019-04-04T08:45:48.223Z,30.0954
2019-04-04T08:46:50.519Z,30.3365
2019-04-04T08:47:52.809Z,30.2220
2019-04-04T08:48:55.105Z,30.1411
2019-04-04T08:49:57.453Z,30.5669
2019-04-04T08:50:59.805Z,30.1488
2019-04-04T08:52:02.120Z,29.2424
2019-04-04T08:53:04.294Z,29.1752
2019-04-04T08:54:06.593Z,29.2943
2019-04-04T08:55:08.885Z,29.3248
2019-04-04T08:56:11.175Z,29.4209
2019-04-04T08:57:13.470Z,29.3492
2019-04-04T08:58:15.758Z,29.6498
2019-04-04T08:59:18.074Z,29.7749
2019-04-04T09:00:20.372Z,29.9489
2019-04-04T09:01:22.679Z,30.0847
2019-04-04T09:02:24.997Z,30.3044
2019-04-04T09:03:27.294Z,30.2327
2019-04-04T09:04:29.599Z,30.2876
2019-04-04T09:05:31.908Z,30.2235
2019-04-04T09:06:34.217Z,30.1640
2019-04-04T09:07:36.514Z,30.2220
2019-04-04T09:08:38.816Z,30.4204
2019-04-04T09:09:41.198Z,30.2327
2019-04-04T09:10:43.566Z,30.2678
2019-04-04T09:11:45.925Z,30.1396
2019-04-04T09:12:48.229Z,30.2632
2019-04-04T09:13:50.519Z,30.2327
2019-04-04T09:14:52.816Z,30.2235
2019-04-04T09:15:55.125Z,30.1671
2019-04-04T09:16:57.593Z,30.3319
2019-04-04T09:17:59.924Z,30.2449
2019-04-04T09:19:02.221Z,30.2327
2019-04-04T09:20:04.511Z,30.2174
2019-04-04T09:21:06.866Z,30.1045
2019-04-04T09:22:10.960Z,30.0710
2019-04-04T09:23:13.387Z,30.0130
2019-04-04T09:24:15.701Z,30.0130
2019-04-04T09:25:18.036Z,30.1732
2019-04-04T09:26:20.340Z,30.3288
2019-04-04T09:27:22.628Z,30.2281
2019-04-04T09:28:24.930Z,30.1732
2019-04-04T09:29:27.251Z,30.3014
2019-04-04T09:30:29.539Z,30.1625
2019-04-04T09:31:31.846Z,30.2464
2019-04-04T09:32:34.142Z,30.3319
2019-04-04T09:33:36.432Z,30.2922
2019-04-04T09:34:38.749Z,30.3609
2019-04-04T09:35:41.049Z,30.2495
2019-04-04T09:36:43.348Z,30.2327
2019-04-04T09:37:45.675Z,30.3197
2019-04-04T09:38:47.961Z,30.2770
2019-04-04T09:39:50.263Z,30.4616
2019-04-04T09:40:52.559Z,30.4479
2019-04-04T09:41:54.886Z,30.2785
2019-04-04T09:42:57.204Z,30.2495
2019-04-04T09:43:59.505Z,30.2495
2019-04-04T09:45:01.804Z,30.2358
2019-04-04T09:46:04.117Z,30.3914
2019-04-04T09:47:06.408Z,30.3090
2019-04-04T09:48:08.778Z,30.2632
2019-04-04T09:49:12.935Z,30.4372
2019-04-04T09:50:15.468Z,30.2785
2019-04-04T09:51:17.792Z,30.1900
2019-04-04T09:52:19.253Z,30.3334
2019-04-04T09:53:21.545Z,30.2083
2019-04-04T09:54:23.873Z,30.2953
2019-04-04T09:55:26.154Z,30.2495
2019-04-04T09:56:28.654Z,30.2541
2019-04-04T09:57:30.965Z,30.3044
2019-04-04T09:58:33.252Z,30.2831
2019-04-04T09:59:35.542Z,30.2358
2019-04-04T10:00:37.954Z,30.2831
2019-04-04T10:01:40.288Z,30.2358
2019-04-04T10:02:42.592Z,30.2876
2019-04-04T10:03:44.897Z,30.3227
2019-04-04T10:04:47.191Z,30.2144
2019-04-04T10:05:49.470Z,30.2281
2019-04-04T10:06:51.763Z,30.2831
2019-04-04T10:07:54.093Z,30.1213
2019-04-04T10:08:56.398Z,30.1778
2019-04-04T10:09:58.715Z,30.3151
2019-04-04T10:11:01.023Z,30.2266
2019-04-04T10:12:03.328Z,30.2419
2019-04-04T10:13:05.613Z,30.2281
2019-04-04T10:14:07.905Z,30.3105
2019-04-04T10:15:10.210Z,30.3090
2019-04-04T10:16:12.520Z,30.2403
2019-04-04T10:17:14.924Z,30.2419
2019-04-04T10:18:17.218Z,30.3868
2019-04-04T10:19:19.514Z,30.2861
2019-04-04T10:20:21.827Z,30.2998
2019-04-04T10:21:24.121Z,30.2464
2019-04-04T10:22:26.439Z,30.3548
2019-04-04T10:23:28.732Z,30.3288
2019-04-04T10:24:31.030Z,30.2861
2019-04-04T10:25:33.330Z,30.2953
2019-04-04T10:26:35.617Z,30.2144
2019-04-04T10:27:37.910Z,30.1869
2019-04-04T10:28:40.209Z,30.3410
2019-04-04T10:29:42.495Z,30.3273
2019-04-04T10:30:44.794Z,30.3151
2019-04-04T10:31:47.092Z,30.2403
2019-04-04T10:32:49.384Z,30.2678
2019-04-04T10:33:51.688Z,30.2693
2019-04-04T10:34:53.977Z,30.3883
2019-04-04T10:35:56.280Z,30.2861
2019-04-04T10:36:58.579Z,30.3136
2019-04-04T10:38:00.869Z,30.3883
2019-04-04T10:39:03.169Z,30.4006
2019-04-04T10:40:05.464Z,30.2586
2019-04-04T10:41:07.753Z,30.1869
2019-04-04T10:42:10.063Z,30.4921
2019-04-04T10:43:12.363Z,30.3746
2019-04-04T10:44:14.651Z,30.3426
2019-04-04T10:45:16.946Z,30.3471
2019-04-04T10:46:19.244Z,30.3914
2019-04-04T10:47:21.537Z,30.5470
2019-04-04T10:48:23.839Z,30.4646
2019-04-04T10:49:26.134Z,30.5348
2019-04-04T10:50:28.431Z,30.4021
2019-04-04T10:51:30.731Z,30.4189
2019-04-04T10:52:33.037Z,30.3197
2019-04-04T10:53:35.331Z,30.3914
2019-04-04T10:54:37.616Z,30.2922
2019-04-04T10:55:39.909Z,30.2785
2019-04-04T10:56:42.346Z,30.4845
2019-04-04T10:57:44.892Z,30.3792
2019-04-04T10:58:47.221Z,30.3288
2019-04-04T10:59:49.517Z,30.4433
2019-04-04T11:00:51.807Z,30.3365
2019-04-04T11:01:54.105Z,30.4051
2019-04-04T11:02:56.418Z,30.3746
2019-04-04T11:03:58.703Z,30.5287
2019-04-04T11:05:01.015Z,30.4479
2019-04-04T11:06:03.395Z,30.3426
2019-04-04T11:07:05.690Z,30.3181
2019-04-04T11:08:07.980Z,30.4326
2019-04-04T11:09:10.277Z,30.4601
2019-04-04T11:10:12.566Z,30.4479
2019-04-04T11:11:14.875Z,30.4829
2019-04-04T11:12:17.189Z,30.3456
2019-04-04T11:13:32.462Z,30.3456
2019-04-04T11:14:27.750Z,30.5058
2019-04-04T11:15:30.039Z,30.4784
2019-04-04T11:16:32.369Z,30.3822
2019-04-04T11:17:34.662Z,30.6523
2019-04-04T11:18:36.993Z,30.5257
2019-04-04T11:19:39.295Z,30.4799
2019-04-04T11:20:41.585Z,30.5928
2019-04-04T11:21:43.886Z,30.5058
2019-04-04T11:22:46.217Z,30.3197
2019-04-04T11:23:48.547Z,30.4021
2019-04-04T11:24:50.849Z,30.3883
2019-04-04T11:25:53.147Z,30.4524
2019-04-04T11:26:55.491Z,30.4692
2019-04-04T11:27:57.794Z,30.6401
2019-04-04T11:29:00.099Z,30.6447
2019-04-04T11:30:02.403Z,30.5028
2019-04-04T11:31:04.698Z,30.4189
2019-04-04T11:32:06.992Z,30.4051
2019-04-04T11:33:09.313Z,30.4753
2019-04-04T11:34:11.622Z,30.5058
2019-04-04T11:35:14.234Z,30.4891
2019-04-04T11:36:16.553Z,30.4601
2019-04-04T11:37:18.860Z,30.5303
2019-04-04T11:38:21.157Z,30.6432
2019-04-04T11:39:23.460Z,30.4936
2019-04-04T11:40:25.772Z,30.6523
2019-04-04T11:41:28.072Z,30.5196
2019-04-04T11:42:30.391Z,30.5348
2019-04-04T11:43:32.676Z,30.5623
2019-04-04T11:44:34.967Z,30.6798
2019-04-04T11:45:37.259Z,30.5470
2019-04-04T11:46:39.556Z,30.4387
2019-04-04T11:47:41.864Z,30.3960
2019-04-04T11:48:44.166Z,30.4799
2019-04-04T11:49:46.465Z,30.5196
2019-04-04T11:50:48.756Z,30.5104
2019-04-04T11:51:51.071Z,30.4967
2019-04-04T11:52:53.366Z,30.5898
2019-04-04T11:53:55.667Z,30.4295
2019-04-04T11:54:57.971Z,30.3227
2019-04-04T11:56:00.278Z,30.2556
2019-04-04T11:57:02.595Z,30.4204
2019-04-04T11:58:04.906Z,30.4524
2019-04-04T11:59:08.294Z,30.4784
2019-04-04T12:00:10.652Z,30.4524
2019-04-04T12:01:12.959Z,30.4326
2019-04-04T12:02:15.257Z,30.7042
2019-04-04T12:03:17.247Z,30.6615
2019-04-04T12:04:19.244Z,30.6249
2019-04-04T12:05:21.537Z,30.4875
2019-04-04T12:06:23.835Z,30.3655
2019-04-04T12:07:26.147Z,30.4280
2019-04-04T12:08:28.463Z,30.4433
2019-04-04T12:09:30.751Z,30.4845
2019-04-04T12:10:33.046Z,30.5699
2019-04-04T12:11:35.350Z,30.6386
2019-04-04T12:12:37.675Z,30.4570
2019-04-04T12:13:39.981Z,30.5837
2019-04-04T12:14:42.288Z,30.5425
2019-04-04T12:15:44.600Z,30.6294
2019-04-04T12:16:46.968Z,30.5150
2019-04-04T12:17:49.292Z,30.5150
2019-04-04T12:18:51.589Z,30.5287
2019-04-04T12:19:53.895Z,30.4875
2019-04-04T12:20:56.197Z,30.5119
2019-04-04T12:21:58.495Z,30.4662
2019-04-04T12:23:00.807Z,30.4753
2019-04-04T12:24:03.100Z,30.4738
2019-04-04T12:25:05.395Z,30.4616
2019-04-04T12:26:07.682Z,30.5760
2019-04-04T12:27:09.987Z,30.5425
2019-04-04T12:28:12.307Z,30.5470
2019-04-04T12:29:14.603Z,30.6172
2019-04-04T12:30:16.907Z,30.6813
2019-04-04T12:31:19.212Z,30.6432
2019-04-04T12:32:21.515Z,30.6035
2019-04-04T12:33:23.816Z,30.6447
2019-04-04T12:34:26.457Z,30.6065
2019-04-04T12:35:28.772Z,33.0892
2019-04-04T12:36:31.075Z,30.4112
2019-04-04T12:37:33.375Z,30.4112
2019-04-04T12:38:35.706Z,30.4204
2019-04-04T12:39:38.017Z,30.4112
2019-04-04T12:40:40.366Z,30.4143
2019-04-04T12:41:42.667Z,30.4250